Time;durP1;ratioP1;P1;durP2;ratioP2;P2;SDS_P1;SDS_P2;PMS_P1;PMS_P2;Temp;Humidity;BMP_temperature;BMP_pressure;BME280_temperature;BME280_humidity;BME280_pressure;Samples;Min_cycle;Max_cycle;Signal;HPM_P1;HPM_P2
2024/03/29 00:00:13;;;;;;;8.93;6.10;;;;;;;7.57;66.48;93249.56;519663;28;1100;-75
2024/03/29 00:00:29;;;;;;;7.80;5.60;;;;;;;7.54;66.88;93247.88;519857;28;888;-75
2024/03/29 00:00:44;;;;;;;7.68;5.50;;;;;;;7.53;66.83;93249.91;519993;28;804;-75
2024/03/29 00:01:01;;;;;;;8.17;5.60;;;;;;;7.55;66.64;93243.88;519957;28;789;-75
2024/03/29 00:01:17;;;;;;;7.20;5.43;;;;;;;7.56;66.64;93248.81;519993;28;973;-75
2024/03/29 00:01:32;;;;;;;6.30;5.07;;;;;;;7.58;66.39;93248.28;519912;28;797;-75
2024/03/29 00:01:48;;;;;;;6.75;5.15;;;;;;;7.59;66.25;93247.00;519802;28;837;-75
2024/03/29 00:02:04;;;;;;;7.80;6.03;;;;;;;7.59;66.13;93239.53;519899;28;849;-75
2024/03/29 00:02:19;;;;;;;7.40;5.93;;;;;;;7.61;66.09;93242.47;519905;28;996;-75
2024/03/29 00:02:34;;;;;;;6.97;5.73;;;;;;;7.62;65.82;93246.69;519855;28;1027;-75
2024/03/29 00:02:50;;;;;;;7.60;6.07;;;;;;;7.63;65.54;93244.66;519930;28;785;-75
2024/03/29 00:03:06;;;;;;;7.65;5.78;;;;;;;7.63;65.52;93247.41;519837;28;864;-75
2024/03/29 00:03:22;;;;;;;9.15;5.68;;;;;;;7.63;65.57;93250.91;519925;28;1149;-75
2024/03/29 00:03:37;;;;;;;9.45;5.95;;;;;;;7.63;65.53;93245.41;520038;28;808;-75
2024/03/29 00:03:53;;;;;;;6.90;5.50;;;;;;;7.65;65.69;93248.38;519844;28;852;-75
2024/03/29 00:04:09;;;;;;;7.03;5.63;;;;;;;7.64;65.83;93254.41;519952;28;769;-75
2024/03/29 00:04:24;;;;;;;8.35;6.10;;;;;;;7.64;65.97;93252.38;519951;28;965;-75
2024/03/29 00:04:40;;;;;;;8.17;6.00;;;;;;;7.65;65.93;93255.88;519788;28;785;-75
2024/03/29 00:04:55;;;;;;;7.43;6.10;;;;;;;7.65;65.99;93253.13;519930;28;799;-75
2024/03/29 00:05:10;;;;;;;7.53;5.82;;;;;;;7.65;66.17;93256.59;519947;28;765;-76
2024/03/29 00:05:26;;;;;;;8.53;5.73;;;;;;;7.66;66.07;93251.84;519890;28;984;-75
2024/03/29 00:05:41;;;;;;;8.52;6.03;;;;;;;7.67;65.92;93252.59;519933;28;844;-75
2024/03/29 00:05:57;;;;;;;8.37;5.73;;;;;;;7.67;66.10;93260.84;519834;28;765;-75
2024/03/29 00:06:12;;;;;;;8.73;5.70;;;;;;;7.66;66.07;93260.09;519929;28;773;-75
2024/03/29 00:06:28;;;;;;;8.37;5.90;;;;;;;7.57;66.20;93236.56;519893;28;1054;-75
2024/03/29 00:06:43;;;;;;;7.83;6.10;;;;;;;7.64;66.13;93248.91;519872;28;809;-75
2024/03/29 00:06:58;;;;;;;10.50;6.38;;;;;;;7.63;65.92;93247.41;519838;28;1914;-75
2024/03/29 00:07:14;;;;;;;12.43;6.33;;;;;;;7.62;65.83;93248.72;519797;28;808;-75
2024/03/29 00:07:29;;;;;;;10.10;6.05;;;;;;;7.59;65.78;93252.50;519848;28;781;-75
2024/03/29 00:07:45;;;;;;;9.80;6.03;;;;;;;7.55;65.67;93252.84;519927;28;910;-75
2024/03/29 00:08:00;;;;;;;9.13;6.00;;;;;;;7.54;65.99;93256.13;519977;28;891;-75
2024/03/29 00:08:16;;;;;;;7.83;6.13;;;;;;;7.43;65.89;93232.38;519851;28;821;-75
2024/03/29 00:08:31;;;;;;;8.45;6.38;;;;;;;7.54;65.74;93245.88;519826;28;978;-75
2024/03/29 00:08:47;;;;;;;9.30;6.13;;;;;;;7.56;65.33;93248.81;519959;28;820;-75
2024/03/29 00:09:02;;;;;;;8.23;5.97;;;;;;;7.54;65.40;93237.63;519846;28;809;-75
2024/03/29 00:09:18;;;;;;;7.40;5.97;;;;;;;7.60;65.47;93245.75;519901;28;1143;-75
2024/03/29 00:09:33;;;;;;;7.53;5.57;;;;;;;7.60;65.27;93246.47;519871;28;757;-75
2024/03/29 00:09:49;;;;;;;8.10;5.57;;;;;;;7.62;65.31;93251.44;519837;28;926;-75
2024/03/29 00:10:04;;;;;;;8.67;5.87;;;;;;;7.63;65.23;93258.41;519869;28;749;-75
2024/03/29 00:10:20;;;;;;;7.57;5.50;;;;;;;7.63;65.04;93256.41;519902;28;1144;-75
2024/03/29 00:10:35;;;;;;;6.57;5.38;;;;;;;7.62;65.29;93260.41;519930;28;769;-75
2024/03/29 00:10:51;;;;;;;7.47;6.13;;;;;;;7.63;65.28;93252.91;520003;28;765;-75
2024/03/29 00:11:06;;;;;;;8.20;6.20;;;;;;;7.63;65.43;93255.66;519862;28;896;-75
2024/03/29 00:11:21;;;;;;;9.20;6.15;;;;;;;7.60;65.99;93256.75;519920;28;1079;-75
2024/03/29 00:11:37;;;;;;;10.40;6.43;;;;;;;7.58;66.00;93260.00;519885;28;903;-75
2024/03/29 00:11:52;;;;;;;9.25;6.47;;;;;;;7.33;66.18;93222.38;519915;28;777;-75
2024/03/29 00:12:08;;;;;;;8.23;6.20;;;;;;;7.51;65.99;93255.16;519929;28;903;-75
2024/03/29 00:12:23;;;;;;;9.57;6.07;;;;;;;7.49;66.05;93252.22;519824;28;972;-75
2024/03/29 00:12:39;;;;;;;14.32;6.55;;;;;;;7.48;66.15;93253.50;519846;28;745;-75
2024/03/29 00:12:54;;;;;;;12.25;6.70;;;;;;;7.43;66.47;93248.88;519871;28;789;-75
2024/03/29 00:13:10;;;;;;;9.27;6.63;;;;;;;7.40;66.50;93246.47;519678;28;966;-75
2024/03/29 00:13:25;;;;;;;10.82;6.82;;;;;;;7.36;66.32;93248.78;519633;28;875;-75
2024/03/29 00:13:41;;;;;;;9.73;6.87;;;;;;;7.36;66.37;93244.00;519826;28;793;-75
2024/03/29 00:13:56;;;;;;;8.57;7.00;;;;;;;7.37;66.24;93242.75;519887;28;1080;-75
2024/03/29 00:14:12;;;;;;;10.02;6.70;;;;;;;7.39;66.14;93248.47;519793;28;914;-75
2024/03/29 00:14:27;;;;;;;10.20;6.57;;;;;;;7.38;66.20;93244.25;519935;28;809;-75
2024/03/29 00:14:43;;;;;;;10.38;7.10;;;;;;;7.40;65.98;93254.69;519863;28;799;-75
2024/03/29 00:14:59;;;;;;;9.52;6.80;;;;;;;7.43;65.92;93250.88;519900;28;765;-75
2024/03/29 00:15:14;;;;;;;9.60;6.53;;;;;;;7.39;65.87;93245.72;519831;28;1102;-75
2024/03/29 00:15:33;;;;;;;9.77;6.50;;;;;;;7.45;66.00;93249.06;519902;28;883;-75
2024/03/29 00:15:48;;;;;;;10.45;6.50;;;;;;;7.45;65.93;93251.09;519873;28;896;-75
2024/03/29 00:16:04;;;;;;;9.35;6.53;;;;;;;7.45;65.94;93249.06;519861;28;836;-75
2024/03/29 00:16:19;;;;;;;10.23;6.63;;;;;;;7.47;65.93;93254.03;519892;28;951;-75
2024/03/29 00:16:35;;;;;;;12.48;6.90;;;;;;;7.46;66.04;93255.31;519954;28;1529;-75
2024/03/29 00:16:50;;;;;;;10.63;7.43;;;;;;;7.35;66.08;93230.81;519889;28;1228;-75
2024/03/29 00:17:06;;;;;;;10.43;7.90;;;;;;;7.47;66.23;93248.56;519837;28;848;-75
2024/03/29 00:17:21;;;;;;;11.23;8.17;;;;;;;7.47;66.20;93248.56;519883;28;840;-75
2024/03/29 00:17:36;;;;;;;10.40;7.90;;;;;;;7.48;66.42;93248.00;519865;28;892;-75
2024/03/29 00:17:52;;;;;;;10.47;7.20;;;;;;;7.49;66.21;93251.50;519939;28;813;-75
2024/03/29 00:18:07;;;;;;;10.97;6.70;;;;;;;7.50;66.16;93250.97;519838;28;871;-75
2024/03/29 00:18:23;;;;;;;8.43;6.20;;;;;;;7.51;65.93;93246.22;519787;28;1026;-75
2024/03/29 00:18:38;;;;;;;7.37;6.10;;;;;;;7.51;65.71;93246.94;519869;28;785;-75
2024/03/29 00:18:54;;;;;;;9.73;6.72;;;;;;;7.25;65.33;93211.34;519832;28;820;-75
2024/03/29 00:19:09;;;;;;;10.70;6.70;;;;;;;7.52;65.32;93248.41;519863;28;949;-75
2024/03/29 00:19:24;;;;;;;8.90;6.03;;;;;;;7.54;65.34;93251.38;519870;28;840;-75
2024/03/29 00:19:40;;;;;;;8.07;5.97;;;;;;;7.53;65.24;93252.66;519847;28;828;-75
2024/03/29 00:19:56;;;;;;;8.85;6.43;;;;;;;7.53;65.23;93252.66;519786;28;909;-75
2024/03/29 00:20:11;;;;;;;8.17;6.40;;;;;;;7.51;65.00;93248.97;519932;28;816;-75
2024/03/29 00:20:29;;;;;;;7.07;5.75;;;;;;;7.50;65.20;93256.44;519937;28;860;-75
2024/03/29 00:20:44;;;;;;;7.75;5.72;;;;;;;7.46;65.07;93249.81;519849;28;909;-75
2024/03/29 00:21:00;;;;;;;8.95;6.07;;;;;;;7.41;65.19;93248.66;519882;28;761;-75
2024/03/29 00:21:15;;;;;;;8.80;6.33;;;;;;;7.40;65.14;93249.94;519765;28;769;-75
2024/03/29 00:21:31;;;;;;;9.30;6.20;;;;;;;7.39;65.44;93253.19;519911;28;781;-75
2024/03/29 00:21:46;;;;;;;8.27;5.60;;;;;;;7.38;65.19;93249.75;519826;28;1522;-75
2024/03/29 00:22:02;;;;;;;5.57;4.70;;;;;;;7.38;65.23;93260.72;519681;28;2208;-74
2024/03/29 00:22:17;;;;;;;5.43;4.37;;;;;;;7.36;65.35;93263.25;519711;28;1074;-75
2024/03/29 00:22:33;;;;;;;6.22;4.53;;;;;;;7.35;65.22;93263.78;519540;28;824;-75
2024/03/29 00:22:48;;;;;;;6.30;4.67;;;;;;;7.33;65.40;93261.56;519758;28;770;-75
2024/03/29 00:23:03;;;;;;;6.20;4.93;;;;;;;7.28;65.43;93261.69;519753;28;766;-75
2024/03/29 00:23:19;;;;;;;6.07;4.70;;;;;;;7.21;65.86;93260.31;519706;28;1062;-75
2024/03/29 00:23:34;;;;;;;5.97;4.90;;;;;;;7.15;66.10;93256.97;519690;28;858;-76
2024/03/29 00:23:50;;;;;;;7.10;5.18;;;;;;;7.09;65.96;93261.84;519766;28;790;-75
2024/03/29 00:24:06;;;;;;;7.03;4.68;;;;;;;7.06;66.34;93256.69;519895;28;838;-75
2024/03/29 00:24:21;;;;;;;6.07;4.40;;;;;;;7.06;66.34;93257.41;519921;28;765;-75
2024/03/29 00:24:37;;;;;;;5.95;4.72;;;;;;;7.05;66.43;93255.94;519878;28;746;-75
2024/03/29 00:24:52;;;;;;;5.70;4.93;;;;;;;7.06;66.43;93262.16;519892;28;777;-75
2024/03/29 00:25:08;;;;;;;5.75;4.90;;;;;;;7.02;66.81;93250.78;519879;28;910;-75
2024/03/29 00:25:24;;;;;;;6.00;4.88;;;;;;;7.07;66.91;93256.13;519779;28;848;-75
2024/03/29 00:25:39;;;;;;;7.00;5.13;;;;;;;7.05;66.80;93255.94;519877;28;753;-75
2024/03/29 00:25:58;;;;;;;8.45;4.93;;;;;;;7.02;66.77;93254.25;519950;28;903;-75
2024/03/29 00:26:14;;;;;;;5.78;3.90;;;;;;;7.00;66.96;93264.28;519965;28;926;-75
2024/03/29 00:26:29;;;;;;;4.83;3.67;;;;;;;6.71;67.06;93224.94;519881;28;860;-75
2024/03/29 00:26:45;;;;;;;5.67;3.90;;;;;;;6.94;67.05;93255.41;519780;28;1116;-75
2024/03/29 00:27:01;;;;;;;5.45;3.90;;;;;;;6.87;67.20;93263.03;519820;28;1922;-75
2024/03/29 00:27:17;;;;;;;5.10;3.60;;;;;;;6.84;67.27;93257.88;519852;28;1094;-75
2024/03/29 00:27:32;;;;;;;5.53;3.67;;;;;;;6.85;67.40;93251.84;519815;28;800;-75
2024/03/29 00:27:48;;;;;;;4.80;3.65;;;;;;;6.85;67.12;93256.59;519906;28;809;-75
2024/03/29 00:28:04;;;;;;;6.07;4.50;;;;;;;6.88;67.12;93253.53;519781;28;855;-75
2024/03/29 00:28:19;;;;;;;7.10;4.90;;;;;;;6.88;67.09;93261.78;519875;28;797;-75
2024/03/29 00:28:34;;;;;;;7.20;4.73;;;;;;;6.84;67.24;93255.13;519892;28;745;-75
2024/03/29 00:28:50;;;;;;;7.07;4.55;;;;;;;6.79;67.14;93255.97;519863;28;871;-75
2024/03/29 00:29:05;;;;;;;5.70;3.87;;;;;;;6.75;67.47;93256.28;519847;28;808;-75
2024/03/29 00:29:21;;;;;;;5.28;3.95;;;;;;;6.75;67.42;93258.28;519809;28;1013;-75
2024/03/29 00:29:36;;;;;;;7.07;4.33;;;;;;;6.74;67.67;93263.03;519775;28;770;-75
2024/03/29 00:29:55;;;;;;;7.78;4.53;;;;;;;6.57;67.39;93226.22;519827;28;911;-75
2024/03/29 00:30:10;;;;;;;7.38;4.43;;;;;;;6.60;67.61;93231.41;519903;28;820;-75
2024/03/29 00:30:26;;;;;;;6.25;4.20;;;;;;;6.81;67.48;93264.41;519811;28;895;-75
2024/03/29 00:30:41;;;;;;;6.03;3.83;;;;;;;6.82;67.50;93265.88;519929;28;855;-75
2024/03/29 00:30:57;;;;;;;5.57;3.67;;;;;;;6.84;67.48;93258.59;519812;28;789;-75
2024/03/29 00:31:12;;;;;;;4.33;3.83;;;;;;;6.86;67.52;93256.03;519891;28;836;-75
2024/03/29 00:31:28;;;;;;;6.18;3.90;;;;;;;6.88;67.37;93258.28;519882;28;868;-75
2024/03/29 00:31:43;;;;;;;7.67;4.03;;;;;;;6.89;67.66;93252.25;519886;28;745;-75
2024/03/29 00:31:58;;;;;;;7.77;4.67;;;;;;;6.90;67.75;93258.50;519904;28;817;-75
2024/03/29 00:32:14;;;;;;;5.63;4.50;;;;;;;6.93;67.58;93259.44;519777;28;828;-75
2024/03/29 00:32:29;;;;;;;4.77;4.27;;;;;;;6.93;67.46;93254.66;519826;28;1008;-75
2024/03/29 00:32:45;;;;;;;5.53;4.35;;;;;;;6.94;67.35;93258.16;519849;28;923;-75
2024/03/29 00:33:00;;;;;;;5.27;4.23;;;;;;;6.96;67.14;93253.63;519863;28;792;-75
2024/03/29 00:33:16;;;;;;;5.35;4.28;;;;;;;6.98;67.04;93259.31;519858;28;1070;-75
2024/03/29 00:33:31;;;;;;;6.53;4.40;;;;;;;6.98;66.91;93253.81;519797;28;903;-75
2024/03/29 00:33:47;;;;;;;7.03;4.33;;;;;;;7.00;66.83;93267.00;519722;28;737;-75
2024/03/29 00:34:02;;;;;;;7.85;4.53;;;;;;;7.00;66.89;93256.78;519805;28;891;-75
2024/03/29 00:34:17;;;;;;;7.90;4.83;;;;;;;7.01;66.88;93254.78;519846;28;733;-75
2024/03/29 00:34:35;;;;;;;8.15;4.50;;;;;;;7.00;66.89;93256.78;519832;28;757;-75
2024/03/29 00:34:52;;;;;;;8.18;4.68;;;;;;;7.01;67.02;93260.28;519866;28;882;-75
2024/03/29 00:35:08;;;;;;;6.88;4.30;;;;;;;7.00;67.11;93256.03;519876;28;800;-75
2024/03/29 00:35:23;;;;;;;6.38;4.18;;;;;;;7.00;66.95;93262.28;519883;28;824;-75
2024/03/29 00:35:39;;;;;;;6.40;4.60;;;;;;;7.01;67.00;93258.28;519832;28;793;-75
2024/03/29 00:35:54;;;;;;;6.32;4.43;;;;;;;7.00;66.89;93259.53;519887;28;812;-75
2024/03/29 00:36:09;;;;;;;6.67;4.50;;;;;;;6.99;66.90;93263.56;519832;28;919;-75
2024/03/29 00:36:25;;;;;;;5.97;4.53;;;;;;;6.99;66.90;93260.81;519817;28;784;-75
2024/03/29 00:36:40;;;;;;;5.97;4.50;;;;;;;7.00;66.65;93254.03;519802;28;859;-75
2024/03/29 00:36:56;;;;;;;6.13;4.63;;;;;;;7.01;66.61;93265.75;519835;28;768;-76
2024/03/29 00:37:12;;;;;;;6.30;4.60;;;;;;;6.99;66.50;93260.06;519845;28;922;-75
2024/03/29 00:37:27;;;;;;;6.43;4.38;;;;;;;6.99;66.47;93260.06;519902;28;784;-75
2024/03/29 00:37:42;;;;;;;6.23;4.20;;;;;;;6.99;66.25;93266.28;519791;28;753;-75
2024/03/29 00:37:58;;;;;;;7.82;4.78;;;;;;;6.98;66.13;93262.06;519868;28;814;-75
2024/03/29 00:38:14;;;;;;;7.60;4.97;;;;;;;6.99;66.08;93266.28;519831;28;883;-75
2024/03/29 00:38:29;;;;;;;5.88;4.40;;;;;;;6.99;66.25;93271.78;519908;28;906;-75
2024/03/29 00:38:45;;;;;;;6.33;4.03;;;;;;;7.00;66.18;93259.53;519728;28;843;-75
2024/03/29 00:39:00;;;;;;;7.03;4.28;;;;;;;7.01;66.54;93265.75;519830;28;878;-75
2024/03/29 00:39:15;;;;;;;7.40;4.67;;;;;;;6.99;66.36;93260.06;519734;28;808;-75
2024/03/29 00:39:31;;;;;;;7.63;4.13;;;;;;;6.97;66.29;93266.09;519760;28;752;-75
2024/03/29 00:39:47;;;;;;;7.53;3.97;;;;;;;6.93;66.58;93262.91;519877;28;836;-75
2024/03/29 00:40:02;;;;;;;6.57;4.13;;;;;;;6.90;66.74;93258.50;519865;28;844;-75
2024/03/29 00:40:18;;;;;;;5.47;4.27;;;;;;;6.85;66.84;93257.31;519817;28;785;-75
2024/03/29 00:40:36;;;;;;;5.97;4.28;;;;;;;6.82;66.91;93258.38;519679;28;1099;-75
2024/03/29 00:40:51;;;;;;;5.88;4.30;;;;;;;6.88;66.54;93258.28;519914;28;917;-75
2024/03/29 00:41:07;;;;;;;8.57;4.83;;;;;;;6.91;66.43;93259.22;519745;28;1117;-75
2024/03/29 00:41:22;;;;;;;9.40;5.53;;;;;;;6.91;66.15;93265.44;519825;28;828;-75
2024/03/29 00:41:38;;;;;;;9.67;5.90;;;;;;;6.91;66.32;93267.47;519853;28;756;-75
2024/03/29 00:41:53;;;;;;;8.23;5.25;;;;;;;6.91;66.36;93265.44;519799;28;780;-75
2024/03/29 00:42:09;;;;;;;6.53;5.30;;;;;;;6.91;66.33;93262.69;519853;28;828;-75
2024/03/29 00:42:25;;;;;;;7.70;5.68;;;;;;;6.94;66.26;93271.88;519882;28;808;-75
2024/03/29 00:42:40;;;;;;;7.23;5.20;;;;;;;6.94;66.35;93271.88;519783;28;856;-75
2024/03/29 00:42:56;;;;;;;6.83;5.00;;;;;;;6.95;66.26;93270.63;519893;28;1073;-75
2024/03/29 00:43:11;;;;;;;7.65;5.10;;;;;;;6.93;66.47;93265.66;519877;28;764;-75
2024/03/29 00:43:27;;;;;;;9.27;5.27;;;;;;;6.94;66.68;93269.88;519769;28;816;-75
2024/03/29 00:43:42;;;;;;;7.80;5.20;;;;;;;6.95;66.70;93265.88;519791;28;899;-75
2024/03/29 00:43:57;;;;;;;5.77;4.97;;;;;;;6.94;66.75;93264.41;519831;28;756;-75
2024/03/29 00:44:13;;;;;;;6.40;4.90;;;;;;;6.94;66.92;93267.13;519784;28;864;-75
2024/03/29 00:44:28;;;;;;;7.13;4.87;;;;;;;6.94;66.81;93269.88;519783;28;998;-75
2024/03/29 00:44:44;;;;;;;7.43;5.07;;;;;;;6.94;66.76;93275.38;519757;28;797;-75
2024/03/29 00:44:59;;;;;;;7.18;5.00;;;;;;;6.95;66.77;93270.63;519892;28;792;-75
2024/03/29 00:45:15;;;;;;;7.57;5.20;;;;;;;6.95;66.85;93265.88;519838;28;807;-75
2024/03/29 00:45:30;;;;;;;8.73;6.20;;;;;;;6.90;66.83;93263.97;519885;28;804;-75
2024/03/29 00:45:46;;;;;;;10.60;7.77;;;;;;;6.94;66.82;93264.41;519779;28;847;-75
2024/03/29 00:46:01;;;;;;;12.13;8.70;;;;;;;6.94;66.56;93269.88;519781;28;1065;-75
2024/03/29 00:46:16;;;;;;;11.00;8.33;;;;;;;6.93;66.67;93267.69;519868;28;738;-75
2024/03/29 00:46:32;;;;;;;11.20;8.07;;;;;;;6.91;66.72;93265.44;519711;28;832;-75
2024/03/29 00:46:47;;;;;;;14.40;8.80;;;;;;;6.91;66.79;93261.97;519887;28;804;-75
2024/03/29 00:47:03;;;;;;;12.93;8.80;;;;;;;6.91;66.60;93265.44;519768;28;1938;-75
2024/03/29 00:47:19;;;;;;;11.43;8.55;;;;;;;6.90;66.61;93274.97;519810;28;883;-75
2024/03/29 00:47:34;;;;;;;11.73;8.80;;;;;;;6.91;66.59;93267.47;519742;28;859;-76
2024/03/29 00:47:50;;;;;;;12.37;8.77;;;;;;;6.91;66.57;93265.44;519864;28;827;-75
2024/03/29 00:48:05;;;;;;;13.55;9.18;;;;;;;6.94;66.63;93277.38;520804;28;1246;-75
2024/03/29 00:48:21;;;;;;;12.77;9.30;;;;;;;6.84;66.73;93260.59;521890;28;819;-75
2024/03/29 00:48:37;;;;;;;13.87;9.93;;;;;;;6.93;66.74;93267.69;521879;28;1051;-75
2024/03/29 00:48:52;;;;;;;14.18;10.95;;;;;;;6.95;66.50;93267.88;521676;28;871;-76
2024/03/29 00:49:07;;;;;;;15.27;11.60;;;;;;;6.93;66.62;93273.16;521972;28;815;-75
2024/03/29 00:49:23;;;;;;;17.90;11.98;;;;;;;6.94;66.56;93264.41;521826;28;827;-75
2024/03/29 00:49:39;;;;;;;18.33;11.93;;;;;;;6.93;66.64;93265.66;521919;28;789;-75
2024/03/29 00:49:54;;;;;;;17.48;11.23;;;;;;;6.87;66.58;93276.75;521843;28;826;-75
2024/03/29 00:50:10;;;;;;;14.70;9.73;;;;;;;6.85;66.67;93265.56;521823;28;987;-75
2024/03/29 00:50:25;;;;;;;12.23;9.02;;;;;;;6.86;66.76;93269.75;521793;28;821;-75
2024/03/29 00:50:41;;;;;;;11.97;9.33;;;;;;;6.86;66.63;93271.78;521850;28;909;-75
2024/03/29 00:50:56;;;;;;;12.43;9.23;;;;;;;6.87;66.65;93270.50;521826;28;789;-75
2024/03/29 00:51:12;;;;;;;12.20;8.23;;;;;;;6.86;66.72;93274.53;521845;28;815;-75
2024/03/29 00:51:27;;;;;;;10.63;7.45;;;;;;;6.87;66.88;93276.00;521943;28;804;-75
2024/03/29 00:51:42;;;;;;;10.23;7.97;;;;;;;6.86;66.80;93280.75;521758;28;851;-75
2024/03/29 00:51:58;;;;;;;12.50;9.10;;;;;;;6.86;66.79;93277.28;521898;28;811;-75
2024/03/29 00:52:13;;;;;;;14.23;9.63;;;;;;;6.87;66.69;93274.00;521860;28;784;-75
2024/03/29 00:52:29;;;;;;;13.63;9.37;;;;;;;6.88;66.57;93270.00;521927;28;776;-75
2024/03/29 00:52:45;;;;;;;12.27;9.32;;;;;;;6.91;66.70;93273.69;521775;28;860;-75
2024/03/29 00:53:00;;;;;;;13.57;9.77;;;;;;;6.89;66.79;93281.69;521844;28;842;-75
2024/03/29 00:53:16;;;;;;;15.63;10.17;;;;;;;6.85;66.83;93273.78;521811;28;816;-75
2024/03/29 00:53:31;;;;;;;14.70;10.25;;;;;;;6.76;67.36;93276.22;521841;28;1039;-74
2024/03/29 00:53:47;;;;;;;13.53;9.80;;;;;;;6.67;67.47;93276.66;521933;28;761;-75
2024/03/29 00:54:02;;;;;;;12.90;9.27;;;;;;;6.63;67.65;93276.97;521718;28;820;-75
2024/03/29 00:54:19;;;;;;;14.13;9.30;;;;;;;6.59;67.52;93273.78;521802;28;836;-75
2024/03/29 00:54:34;;;;;;;15.50;9.68;;;;;;;6.56;67.84;93280.31;521822;28;824;-75
2024/03/29 00:54:50;;;;;;;14.90;9.40;;;;;;;6.56;67.50;93282.34;521892;28;832;-75
2024/03/29 00:55:05;;;;;;;13.23;8.70;;;;;;;6.58;67.79;93282.56;521844;28;894;-75
2024/03/29 00:55:21;;;;;;;10.93;8.10;;;;;;;6.60;67.58;93280.03;521869;28;867;-75
2024/03/29 00:55:37;;;;;;;9.32;7.68;;;;;;;6.61;67.45;93282.22;521705;28;915;-75
2024/03/29 00:55:52;;;;;;;9.70;7.85;;;;;;;6.62;67.51;93277.50;521790;28;902;-75
2024/03/29 00:56:08;;;;;;;11.20;8.23;;;;;;;6.62;67.42;93291.22;521879;28;768;-75
2024/03/29 00:56:23;;;;;;;11.93;8.63;;;;;;;6.60;67.68;93289.00;521788;28;851;-75
2024/03/29 00:56:38;;;;;;;13.23;8.67;;;;;;;6.63;67.66;93281.69;521895;28;766;-75
2024/03/29 00:56:54;;;;;;;13.13;8.27;;;;;;;6.64;67.67;93291.41;521729;28;1127;-75
2024/03/29 00:57:13;;;;;;;11.48;8.35;;;;;;;6.63;67.78;93285.19;519719;28;934;-75
2024/03/29 00:57:28;;;;;;;11.68;8.07;;;;;;;6.64;67.67;93283.19;519771;28;828;-75
2024/03/29 00:57:44;;;;;;;12.17;7.70;;;;;;;6.64;67.96;93275.72;519790;28;828;-75
2024/03/29 00:57:59;;;;;;;13.35;7.85;;;;;;;6.63;68.06;93274.22;519809;28;852;-75
2024/03/29 00:58:15;;;;;;;14.50;8.07;;;;;;;6.62;68.32;93272.75;519794;28;793;-75
2024/03/29 00:58:30;;;;;;;13.68;8.15;;;;;;;6.61;67.94;93273.25;519765;28;827;-75
2024/03/29 00:58:46;;;;;;;12.57;8.00;;;;;;;6.46;68.29;93270.31;519738;28;769;-75
2024/03/29 00:59:01;;;;;;;12.38;7.68;;;;;;;6.39;68.68;93270.94;519795;28;872;-75
2024/03/29 00:59:17;;;;;;;11.57;7.13;;;;;;;6.35;69.01;93270.50;519858;28;817;-75
2024/03/29 00:59:32;;;;;;;9.95;6.90;;;;;;;6.31;69.16;93267.34;519714;28;867;-75
2024/03/29 00:59:48;;;;;;;8.03;6.50;;;;;;;6.28;69.49;93271.84;519844;28;760;-75
2024/03/29 01:00:04;;;;;;;7.80;6.22;;;;;;;6.28;69.53;93271.13;519821;28;872;-75
2024/03/29 01:00:19;;;;;;;9.75;6.75;;;;;;;6.29;69.56;93272.59;519820;28;843;-75
2024/03/29 01:00:35;;;;;;;9.73;6.87;;;;;;;6.27;69.74;93272.38;519725;28;844;-75
2024/03/29 01:00:51;;;;;;;8.95;6.45;;;;;;;6.26;69.79;93274.38;519725;28;765;-75
2024/03/29 01:01:07;;;;;;;8.80;6.60;;;;;;;6.26;69.56;93276.41;519734;28;927;-75
2024/03/29 01:01:22;;;;;;;10.55;6.55;;;;;;;6.25;69.86;93285.88;519723;28;874;-75
2024/03/29 01:01:38;;;;;;;9.80;6.20;;;;;;;6.20;69.84;93287.47;519758;28;845;-75
2024/03/29 01:01:53;;;;;;;7.95;6.13;;;;;;;6.23;69.71;93293.91;519790;28;811;-75
2024/03/29 01:02:09;;;;;;;10.47;7.23;;;;;;;6.24;69.59;93295.38;519768;28;907;-75
2024/03/29 01:02:25;;;;;;;11.35;8.30;;;;;;;6.26;69.77;93303.81;519846;28;1002;-75
2024/03/29 01:02:40;;;;;;;11.02;8.88;;;;;;;6.28;69.54;93301.31;519608;28;772;-75
2024/03/29 01:02:57;;;;;;;12.70;9.17;;;;;;;6.28;69.49;93302.00;519824;28;733;-75
2024/03/29 01:03:13;;;;;;;12.10;8.60;;;;;;;6.31;69.20;93302.97;519748;28;922;-75
2024/03/29 01:03:31;;;;;;;11.10;8.23;;;;;;;6.33;69.15;93300.44;519838;28;856;-75
2024/03/29 01:03:46;;;;;;;10.82;7.97;;;;;;;6.35;68.66;93297.91;519699;28;847;-75
2024/03/29 01:04:02;;;;;;;11.00;7.70;;;;;;;6.36;68.56;93294.66;519690;28;852;-75
2024/03/29 01:04:17;;;;;;;10.77;7.70;;;;;;;6.38;68.26;93305.09;519834;28;801;-75
2024/03/29 01:04:33;;;;;;;10.30;7.67;;;;;;;6.39;68.10;93290.84;519759;28;821;-75
2024/03/29 01:04:48;;;;;;;10.85;7.40;;;;;;;6.39;68.03;93301.81;519820;28;876;-75
2024/03/29 01:05:05;;;;;;;10.30;6.97;;;;;;;6.41;67.76;93296.56;519830;28;788;-75
2024/03/29 01:05:21;;;;;;;8.95;6.88;;;;;;;6.39;67.38;93296.34;519770;28;838;-75
2024/03/29 01:05:38;;;;;;;8.80;6.78;;;;;;;6.39;67.56;93288.13;519622;28;896;-75
2024/03/29 01:05:54;;;;;;;8.88;6.60;;;;;;;6.40;67.61;93288.88;519713;28;913;-75
2024/03/29 01:06:09;;;;;;;7.93;6.28;;;;;;;6.40;67.54;93294.34;519835;28;829;-74
2024/03/29 01:06:25;;;;;;;9.00;6.13;;;;;;;6.39;67.52;93290.84;519788;28;977;-74
2024/03/29 01:06:40;;;;;;;10.10;6.38;;;;;;;6.39;67.52;93295.63;519765;28;781;-74
2024/03/29 01:06:56;;;;;;;10.37;6.50;;;;;;;6.39;67.57;93292.88;519676;28;1922;-75
2024/03/29 01:07:11;;;;;;;11.25;6.65;;;;;;;6.39;67.75;93290.16;519792;28;982;-75
2024/03/29 01:07:27;;;;;;;10.83;6.97;;;;;;;6.41;67.49;93287.63;519758;28;859;-74
2024/03/29 01:07:42;;;;;;;10.27;6.93;;;;;;;6.40;67.38;93292.34;519762;28;756;-75
2024/03/29 01:07:57;;;;;;;8.48;5.95;;;;;;;6.36;67.75;93285.69;519844;28;764;-75
2024/03/29 01:08:13;;;;;;;7.78;5.65;;;;;;;6.36;67.80;93297.41;519654;28;960;-74
2024/03/29 01:08:29;;;;;;;7.87;5.60;;;;;;;6.37;67.80;93287.16;519768;28;899;-74
2024/03/29 01:08:44;;;;;;;7.18;5.32;;;;;;;6.36;67.79;93283.69;519725;28;805;-75
2024/03/29 01:09:00;;;;;;;7.60;6.00;;;;;;;6.37;67.92;93289.91;519794;28;800;-74
2024/03/29 01:09:16;;;;;;;8.75;6.65;;;;;;;6.35;67.95;93287.69;519691;28;1080;-75
2024/03/29 01:09:31;;;;;;;10.10;6.93;;;;;;;6.35;68.11;93292.44;519730;28;848;-74
2024/03/29 01:09:47;;;;;;;9.97;6.80;;;;;;;6.34;68.43;93290.97;519716;28;803;-75
2024/03/29 01:10:02;;;;;;;10.80;7.43;;;;;;;6.32;68.51;93288.00;519776;28;773;-75
2024/03/29 01:10:18;;;;;;;13.00;8.05;;;;;;;6.31;68.69;93284.53;519806;28;899;-75
2024/03/29 01:10:33;;;;;;;12.70;7.97;;;;;;;6.30;68.71;93280.31;519679;28;860;-74
2024/03/29 01:10:49;;;;;;;12.57;7.57;;;;;;;6.31;68.89;93281.03;519802;28;804;-75
2024/03/29 01:11:05;;;;;;;13.02;7.97;;;;;;;6.33;68.55;93276.50;519690;28;785;-75
2024/03/29 01:11:20;;;;;;;11.83;7.97;;;;;;;6.34;69.08;93280.00;519744;28;820;-75
2024/03/29 01:11:36;;;;;;;11.00;7.32;;;;;;;6.34;68.84;93283.50;519684;28;885;-75
2024/03/29 01:11:51;;;;;;;11.33;7.63;;;;;;;6.36;68.86;93282.94;519836;28;788;-75
2024/03/29 01:12:06;;;;;;;11.43;7.30;;;;;;;6.36;69.08;93288.44;519730;28;985;-74
2024/03/29 01:12:22;;;;;;;10.03;6.37;;;;;;;6.35;68.71;93284.19;519703;28;887;-75
2024/03/29 01:12:39;;;;;;;10.65;6.30;;;;;;;6.36;69.12;93285.69;519833;28;777;-75
2024/03/29 01:12:54;;;;;;;11.27;6.90;;;;;;;6.36;69.05;93293.91;519753;28;854;-75
2024/03/29 01:13:10;;;;;;;12.03;7.43;;;;;;;6.37;69.18;93287.91;519753;28;781;-75
2024/03/29 01:13:25;;;;;;;13.52;7.82;;;;;;;6.39;69.30;93292.88;519814;28;788;-75
2024/03/29 01:13:41;;;;;;;11.90;7.80;;;;;;;6.37;68.97;93292.66;519709;28;910;-75
2024/03/29 01:13:56;;;;;;;10.33;7.50;;;;;;;6.39;69.10;93299.09;519733;28;836;-74
2024/03/29 01:14:12;;;;;;;9.93;7.03;;;;;;;6.37;69.34;93289.91;519760;28;824;-75
2024/03/29 01:14:27;;;;;;;8.83;6.57;;;;;;;6.29;69.24;93295.28;519879;28;760;-75
2024/03/29 01:14:42;;;;;;;9.23;6.50;;;;;;;6.11;69.42;93283.13;519744;28;808;-75
2024/03/29 01:14:58;;;;;;;11.00;6.97;;;;;;;5.98;69.34;93285.06;519825;28;864;-75
2024/03/29 01:15:14;;;;;;;10.05;6.88;;;;;;;5.86;69.77;93287.28;519724;28;888;-75
2024/03/29 01:15:29;;;;;;;9.27;6.82;;;;;;;5.72;70.12;93287.69;519831;28;895;-75
2024/03/29 01:15:45;;;;;;;8.97;6.83;;;;;;;5.64;70.51;93290.31;519740;28;899;-75
2024/03/29 01:16:00;;;;;;;7.53;6.03;;;;;;;5.58;70.87;93286.94;519865;28;812;-75
2024/03/29 01:16:16;;;;;;;7.18;5.28;;;;;;;5.55;70.69;93295.44;519764;28;1021;-75
2024/03/29 01:16:32;;;;;;;7.63;4.85;;;;;;;5.44;70.97;93277.16;519626;28;745;-75
2024/03/29 01:16:47;;;;;;;5.72;3.78;;;;;;;5.50;71.41;93293.53;519777;28;855;-75